East Leroy, Michigan
Current Conditions -  °F | °C
As of 12:53 AM on Monday 26 Jan 2015 (Local Time) from KBTL Reporting Station
Clear Clear  
Wind Chill:   Ceiling: Unl
Heat Index: 17°   Visibility: 10mi
Dew Point:   Wind: 9mph
Humidity: 68%   Direction: 40°NE
Pressure: 29.97"   Gusts: NA
Location:  42.17°N, 85.22°W
Report Text: KBTL 260553Z 04008KT 10SM CLR M08/M13 A2997 RMK AO2 SLP162 T10831133 11039 21083 51003
Loading
Personal Weather Stations






























Interactive Weather Map New forecast layout! Learn more

10-Day Weather Forecast

Advertisements
Track Severe Weather on mobile